Terminal Aerodrome Forecast
Issued by NWS

Home | Current Version | Previous Version | Text Only | Print | Product List | Glossary On
Versions: 1 2 3 4 5 6 7 8 9 10 11 12 13 14 15 16 17 18 19 20 21 22 23
000
FTUS41 KAKQ 311723
TAFPHF
TAF
KPHF 311723Z 3118/0118 07007KT P6SM SCT025 BKN045
     FM010000 VRB03KT P6SM SCT040 BKN150
     FM010800 VRB02KT 4SM BR BKN040
     FM011100 05006KT 2SM BR OVC008
     FM011300 06008KT P6SM OVC025=

USA.gov is the U.S. government's official web portal to all federal, state and local government web resources and services.